createdAt,value
2023-02-19T00:00:27.076Z,85.82
2023-02-19T00:05:28.398Z,84.89
2023-02-19T00:10:29.605Z,83.45
2023-02-19T00:15:31.089Z,84.19
2023-02-19T00:20:32.452Z,85.58
2023-02-19T00:25:33.705Z,85.88
2023-02-19T00:30:34.924Z,87.85
2023-02-19T00:35:36.164Z,89.12
2023-02-19T00:40:37.423Z,88.78
2023-02-19T00:45:38.702Z,87.52
2023-02-19T00:50:39.903Z,88.17
2023-02-19T00:55:41.188Z,87.33
2023-02-19T01:00:42.427Z,90.05
2023-02-19T01:05:43.661Z,89.78
2023-02-19T01:10:45.077Z,89.44
2023-02-19T01:15:46.521Z,88.41
2023-02-19T01:20:47.859Z,87.84
2023-02-19T01:25:49.099Z,89.37
2023-02-19T01:30:50.306Z,89.27
2023-02-19T01:35:51.539Z,89.30
2023-02-19T01:40:52.786Z,88.24
2023-02-19T01:45:54.027Z,88.61
2023-02-19T01:50:55.337Z,88.98
2023-02-19T01:55:56.578Z,90.85
2023-02-19T02:00:57.889Z,91.13
2023-02-19T02:05:59.171Z,91.44
2023-02-19T02:11:00.431Z,93.23
2023-02-19T02:16:01.714Z,94.33
2023-02-19T02:21:02.933Z,94.08
2023-02-19T02:26:04.404Z,93.42
2023-02-19T02:31:05.770Z,92.98
2023-02-19T02:36:07.400Z,91.11
2023-02-19T02:41:09.138Z,90.52
2023-02-19T02:46:10.835Z,91.62
2023-02-19T02:51:12.513Z,90.42
2023-02-19T02:56:13.882Z,89.84
2023-02-19T03:01:34.160Z,91.31
2023-02-19T03:06:35.444Z,93.37
2023-02-19T03:11:55.420Z,94.25
2023-02-19T03:17:15.388Z,94.12
2023-02-19T03:22:16.651Z,94.05
2023-02-19T03:27:17.963Z,93.83
2023-02-19T03:32:19.204Z,93.64
2023-02-19T03:37:25.167Z,92.04
2023-02-19T03:42:26.395Z,91.53
2023-02-19T03:47:27.632Z,92.10
2023-02-19T03:52:29.100Z,93.64
2023-02-19T03:57:30.321Z,92.53
2023-02-19T04:02:31.657Z,91.65
2023-02-19T04:07:32.952Z,92.30
2023-02-19T04:12:34.155Z,93.21
2023-02-19T04:17:35.424Z,94.17
2023-02-19T04:22:36.624Z,93.63
2023-02-19T04:27:37.859Z,92.61
2023-02-19T04:32:39.063Z,92.63
2023-02-19T04:37:40.298Z,92.45
2023-02-19T04:42:41.549Z,92.58
2023-02-19T04:47:42.827Z,91.86
2023-02-19T04:52:44.136Z,92.39
2023-02-19T04:57:45.343Z,92.91
2023-02-19T05:02:46.636Z,92.48
2023-02-19T05:07:47.917Z,91.54
2023-02-19T05:12:49.143Z,92.50
2023-02-19T05:17:50.340Z,93.93
2023-02-19T05:22:51.594Z,95.25
2023-02-19T05:28:12.751Z,95.39
2023-02-19T05:33:14.477Z,96.60
2023-02-19T05:38:15.731Z,96.86
2023-02-19T05:43:17.126Z,96.86
2023-02-19T05:48:18.381Z,95.64
2023-02-19T05:53:19.657Z,95.43
2023-02-19T05:58:20.886Z,94.87
2023-02-19T06:03:22.147Z,94.32
2023-02-19T06:08:23.350Z,93.45
2023-02-19T06:13:24.572Z,93.07
2023-02-19T06:18:25.770Z,91.93
2023-02-19T06:23:27.023Z,91.62
2023-02-19T06:28:28.265Z,91.42
2023-02-19T06:33:29.568Z,90.81
2023-02-19T06:38:30.798Z,89.21
2023-02-19T06:43:33.245Z,89.83
2023-02-19T06:48:34.503Z,88.64
2023-02-19T06:53:35.803Z,88.30
2023-02-19T06:58:37.018Z,86.88
2023-02-19T07:03:38.221Z,86.20
2023-02-19T07:08:39.488Z,84.68
2023-02-19T07:13:40.704Z,84.58
2023-02-19T07:18:41.997Z,86.51
2023-02-19T07:23:43.234Z,84.46
2023-02-19T07:28:44.508Z,84.32
2023-02-19T07:33:45.759Z,84.10
2023-02-19T07:38:47.063Z,85.01
2023-02-19T07:43:48.279Z,84.12
2023-02-19T07:48:49.593Z,83.67
2023-02-19T07:53:50.926Z,83.53
2023-02-19T07:58:52.352Z,84.10
2023-02-19T08:03:53.582Z,83.47
2023-02-19T08:08:57.031Z,82.62
2023-02-19T08:13:58.476Z,83.60
2023-02-19T08:18:59.816Z,84.08
2023-02-19T08:24:01.123Z,82.77
2023-02-19T08:29:02.384Z,82.81
2023-02-19T08:34:03.663Z,80.40
2023-02-19T08:39:05.096Z,80.76
2023-02-19T08:44:06.319Z,81.59
2023-02-19T08:49:07.635Z,81.06
2023-02-19T08:54:08.889Z,80.93
2023-02-19T08:59:10.130Z,81.26
2023-02-19T09:04:11.412Z,81.58
2023-02-19T09:09:12.773Z,80.54
2023-02-19T09:14:13.980Z,80.82
2023-02-19T09:19:15.233Z,80.40
2023-02-19T09:24:16.477Z,82.40
2023-02-19T09:29:17.758Z,76.00
2023-02-19T09:34:19.024Z,75.14
2023-02-19T09:39:20.417Z,75.80
2023-02-19T09:44:21.932Z,73.40
2023-02-19T09:49:25.690Z,77.00
2023-02-19T09:54:27.213Z,78.61
2023-02-19T09:59:28.513Z,79.31
2023-02-19T10:04:29.756Z,79.05
2023-02-19T10:09:31.132Z,77.35
2023-02-19T10:14:32.431Z,76.41
2023-02-19T10:19:33.762Z,76.78
2023-02-19T10:24:36.956Z,76.76
2023-02-19T10:29:39.682Z,76.44
2023-02-19T10:34:40.940Z,77.13
2023-02-19T10:39:42.330Z,77.38
2023-02-19T10:44:43.620Z,76.60
2023-02-19T10:49:46.115Z,77.16
2023-02-19T10:54:47.346Z,78.67
2023-02-19T10:59:48.562Z,80.49
2023-02-19T11:04:49.845Z,79.10
2023-02-19T11:09:54.178Z,79.41
2023-02-19T11:14:55.451Z,77.39
2023-02-19T11:19:56.848Z,75.99
2023-02-19T11:24:59.492Z,74.40
2023-02-19T11:30:00.902Z,74.26
2023-02-19T11:35:02.137Z,73.78
2023-02-19T11:40:03.431Z,72.36
2023-02-19T11:45:04.725Z,72.93
2023-02-19T11:50:05.942Z,71.65
2023-02-19T11:55:07.197Z,70.58
2023-02-19T12:00:08.386Z,72.18
2023-02-19T12:05:13.166Z,71.78
2023-02-19T12:10:14.510Z,71.22
2023-02-19T12:15:15.838Z,71.32
2023-02-19T12:20:17.105Z,71.03
2023-02-19T12:25:18.591Z,71.67
2023-02-19T12:30:19.914Z,70.19
2023-02-19T12:35:21.464Z,68.52
2023-02-19T12:40:22.765Z,69.61
2023-02-19T12:45:24.081Z,68.46
2023-02-19T12:50:25.546Z,70.24
2023-02-19T12:55:26.872Z,73.77
2023-02-19T13:00:28.316Z,77.70
2023-02-19T13:05:32.630Z,82.39
2023-02-19T13:10:34.199Z,81.19
2023-02-19T13:15:35.563Z,80.23
2023-02-19T13:20:36.898Z,78.77
2023-02-19T13:25:38.154Z,74.74
2023-02-19T13:30:39.592Z,73.08
2023-02-19T13:35:41.511Z,73.91
2023-02-19T13:40:45.944Z,72.83
2023-02-19T13:45:47.322Z,70.22
2023-02-19T13:50:49.083Z,69.94
2023-02-19T13:55:51.440Z,68.46
2023-02-19T14:00:53.904Z,68.30
2023-02-19T14:05:55.293Z,63.84
2023-02-19T14:11:09.869Z,62.08
2023-02-19T14:16:11.659Z,63.12
2023-02-19T14:21:13.096Z,65.63
2023-02-19T14:26:16.724Z,64.09
2023-02-19T14:31:18.724Z,65.58
2023-02-19T14:36:20.254Z,67.03
2023-02-19T14:41:23.310Z,67.52
2023-02-19T14:46:24.677Z,67.74
2023-02-19T14:51:26.122Z,67.25
2023-02-19T14:56:27.666Z,66.14
2023-02-19T15:01:29.836Z,69.77
2023-02-19T15:06:31.692Z,69.66
2023-02-19T15:11:33.086Z,70.23
2023-02-19T15:16:35.699Z,69.98
2023-02-19T15:21:36.992Z,73.69
2023-02-19T15:26:38.538Z,75.56
2023-02-19T15:31:39.802Z,76.19
2023-02-19T15:36:42.028Z,78.42
2023-02-19T15:41:44.652Z,78.99
2023-02-19T15:46:45.925Z,80.59
2023-02-19T15:51:47.227Z,84.09
2023-02-19T15:56:48.503Z,85.62
2023-02-19T16:01:49.868Z,84.90
2023-02-19T16:06:51.188Z,83.63
2023-02-19T16:11:52.944Z,83.50
2023-02-19T16:16:56.788Z,83.61
2023-02-19T16:21:58.122Z,82.39
2023-02-19T16:26:59.535Z,80.60
2023-02-19T16:32:00.879Z,81.58
2023-02-19T16:37:02.207Z,81.63
2023-02-19T16:42:03.466Z,81.13
2023-02-19T16:47:04.799Z,81.15
2023-02-19T16:52:06.035Z,81.42
2023-02-19T16:57:07.291Z,80.98
2023-02-19T17:07:24.555Z,80.40
2023-02-19T17:12:25.839Z,80.41
2023-02-19T17:17:27.106Z,79.13
2023-02-19T17:22:28.411Z,78.45
2023-02-19T17:27:29.676Z,78.17
2023-02-19T17:32:31.054Z,79.05
2023-02-19T17:37:32.357Z,80.32
2023-02-19T17:42:33.568Z,80.80
2023-02-19T17:47:34.784Z,81.63
2023-02-19T17:52:36.046Z,82.31
2023-02-19T17:57:37.372Z,81.32
2023-02-19T18:02:38.648Z,80.61
2023-02-19T18:07:40.149Z,80.43
2023-02-19T18:12:41.378Z,81.21
2023-02-19T18:17:42.600Z,82.37
2023-02-19T18:22:43.879Z,82.26
2023-02-19T18:27:45.191Z,83.04
2023-02-19T18:32:48.060Z,83.37
2023-02-19T18:37:49.437Z,83.91
2023-02-19T18:42:50.733Z,85.40
2023-02-19T18:47:52.057Z,85.34
2023-02-19T18:52:56.415Z,86.61
2023-02-19T18:57:57.744Z,87.36
2023-02-19T19:08:14.803Z,86.78
2023-02-19T19:13:16.015Z,86.58
2023-02-19T19:18:20.361Z,85.97
2023-02-19T19:23:21.654Z,85.74
2023-02-19T19:28:24.868Z,84.76
2023-02-19T19:33:28.050Z,84.03
2023-02-19T19:38:29.504Z,82.81
2023-02-19T19:43:30.762Z,81.89
2023-02-19T19:48:33.157Z,82.93
2023-02-19T19:53:34.465Z,84.62
2023-02-19T19:58:37.342Z,85.97
2023-02-19T20:03:38.650Z,87.44
2023-02-19T20:08:40.007Z,87.92
2023-02-19T20:13:41.363Z,88.34
2023-02-19T20:18:42.774Z,89.44
2023-02-19T20:23:44.042Z,89.48
2023-02-19T20:28:46.482Z,89.35
2023-02-19T20:33:50.053Z,88.28
2023-02-19T20:38:52.037Z,87.83
2023-02-19T20:43:53.330Z,87.73
2023-02-19T20:48:54.568Z,87.57
2023-02-19T20:53:55.820Z,87.07
2023-02-19T20:58:57.694Z,85.85
2023-02-19T21:03:59.030Z,86.50
2023-02-19T21:09:00.513Z,87.38
2023-02-19T21:14:01.782Z,88.03
2023-02-19T21:19:03.364Z,88.77
2023-02-19T21:24:05.967Z,90.31
2023-02-19T21:29:07.328Z,90.76
2023-02-19T21:34:08.643Z,90.89
2023-02-19T21:39:10.063Z,91.40
2023-02-19T21:44:11.304Z,89.91
2023-02-19T21:49:12.852Z,88.78
2023-02-19T21:54:14.105Z,88.15
2023-02-19T21:59:18.383Z,85.93
2023-02-19T22:04:19.584Z,84.32
2023-02-19T22:09:20.793Z,83.69
2023-02-19T22:14:22.072Z,84.18
2023-02-19T22:19:23.322Z,84.87
2023-02-19T22:24:24.703Z,84.64
2023-02-19T22:29:25.937Z,84.16
2023-02-19T22:34:27.190Z,83.79
2023-02-19T22:39:28.473Z,84.07
2023-02-19T22:44:30.282Z,83.82
2023-02-19T22:49:31.592Z,85.22
2023-02-19T22:54:32.891Z,83.90
2023-02-19T22:59:34.340Z,82.12
2023-02-19T23:04:35.661Z,81.22
2023-02-19T23:09:36.892Z,80.29
2023-02-19T23:14:38.177Z,79.87
2023-02-19T23:19:39.430Z,79.44
2023-02-19T23:24:40.847Z,79.50
2023-02-19T23:29:42.089Z,79.44
2023-02-19T23:34:43.396Z,79.63
2023-02-19T23:39:44.700Z,80.98
2023-02-19T23:44:45.901Z,81.58
2023-02-19T23:49:47.136Z,81.52
2023-02-19T23:54:48.414Z,81.15
2023-02-19T23:59:49.618Z,81.05
